Time,TemperatureF,DewpointF,PressureIn,WindDirection,WindDirectionDegrees,WindSpeedMPH,WindSpeedGustMPH,Humidity,HourlyPrecipIn,Conditions,Clouds,dailyrainin,SolarRadiationWatts/m^2,SoftwareType,DateUTC
2013-10-05 00:12:00,23.0,21.0,-100.00,SSE,159,0.0,1.0,93,0.00,,,0.00,0.000000,,2013-10-05 06:12:00,
2013-10-05 00:22:00,23.0,21.0,-100.00,SSE,159,0.0,1.0,93,0.00,,,0.00,0.000000,,2013-10-05 06:22:00,
2013-10-05 00:32:00,23.0,21.0,-100.00,SSE,159,0.0,1.0,93,0.00,,,0.00,0.000000,,2013-10-05 06:32:00,
2013-10-05 01:12:00,21.0,19.0,-100.00,South,174,0.0,2.0,93,0.00,,,0.00,0.000000,,2013-10-05 07:12:00,
2013-10-05 01:22:00,21.0,19.0,-100.00,South,174,0.0,2.0,93,0.00,,,0.00,0.000000,,2013-10-05 07:22:00,
2013-10-05 01:31:00,21.0,19.0,-100.00,South,174,0.0,2.0,93,0.00,,,0.00,0.000000,,2013-10-05 07:31:00,
2013-10-05 02:12:00,20.0,18.0,-100.00,SSE,147,0.0,2.0,91,0.00,,,0.00,0.000000,,2013-10-05 08:12:00,
2013-10-05 02:23:00,20.0,18.0,-100.00,SSE,147,0.0,2.0,91,0.00,,,0.00,0.000000,,2013-10-05 08:23:00,
2013-10-05 02:32:00,20.0,18.0,-100.00,SSE,147,0.0,2.0,91,0.00,,,0.00,0.000000,,2013-10-05 08:32:00,
2013-10-05 03:11:00,18.0,16.0,-100.00,NE,37,0.0,2.0,91,0.00,,,0.00,0.000000,,2013-10-05 09:11:00,
2013-10-05 03:21:00,18.0,16.0,-100.00,NE,37,0.0,2.0,91,0.00,,,0.00,0.000000,,2013-10-05 09:21:00,
2013-10-05 03:33:00,18.0,16.0,-100.00,NE,37,0.0,2.0,91,0.00,,,0.00,0.000000,,2013-10-05 09:33:00,
2013-10-05 04:12:00,17.0,15.0,-100.00,SSE,152,0.0,2.0,91,0.00,,,0.00,0.000000,,2013-10-05 10:12:00,
2013-10-05 04:23:00,17.0,15.0,-100.00,SSE,152,0.0,2.0,91,0.00,,,0.00,0.000000,,2013-10-05 10:23:00,
2013-10-05 04:32:00,17.0,15.0,-100.00,SSE,152,0.0,2.0,91,0.00,,,0.00,0.000000,,2013-10-05 10:32:00,
2013-10-05 05:11:00,16.0,14.0,-100.00,South,176,0.0,0.0,90,0.00,,,0.00,0.000000,,2013-10-05 11:11:00,
2013-10-05 05:22:00,16.0,14.0,-100.00,South,176,0.0,0.0,90,0.00,,,0.00,0.000000,,2013-10-05 11:22:00,
2013-10-05 05:33:00,16.0,14.0,-100.00,South,176,0.0,0.0,90,0.00,,,0.00,0.000000,,2013-10-05 11:33:00,
2013-10-05 06:12:00,15.0,12.0,-100.00,ESE,121,0.0,2.0,89,0.00,,,0.00,0.000000,,2013-10-05 12:12:00,
2013-10-05 06:22:00,15.0,12.0,-100.00,ESE,121,0.0,2.0,89,0.00,,,0.00,0.000000,,2013-10-05 12:22:00,
2013-10-05 06:32:00,15.0,12.0,-100.00,ESE,121,0.0,2.0,89,0.00,,,0.00,0.000000,,2013-10-05 12:32:00,
2013-10-05 07:12:00,17.0,15.0,-100.00,SSW,205,0.0,2.0,91,0.00,,,0.00,0.000000,,2013-10-05 13:12:00,
2013-10-05 07:22:00,17.0,15.0,-100.00,SSW,205,0.0,2.0,91,0.00,,,0.00,0.000000,,2013-10-05 13:22:00,
2013-10-05 07:32:00,17.0,15.0,-100.00,SSW,205,0.0,2.0,91,0.00,,,0.00,0.000000,,2013-10-05 13:32:00,
2013-10-05 08:11:00,20.0,19.0,-100.00,South,189,1.0,2.0,94,0.00,,,0.00,0.000000,,2013-10-05 14:11:00,
2013-10-05 08:22:00,20.0,19.0,-100.00,South,189,1.0,2.0,94,0.00,,,0.00,0.000000,,2013-10-05 14:22:00,
2013-10-05 08:32:00,20.0,19.0,-100.00,South,189,1.0,2.0,94,0.00,,,0.00,0.000000,,2013-10-05 14:32:00,
2013-10-05 09:12:00,21.0,19.0,-100.00,South,191,1.0,2.0,91,0.00,,,0.00,20.000000,,2013-10-05 15:12:00,
2013-10-05 09:22:00,21.0,19.0,-100.00,South,191,1.0,2.0,91,0.00,,,0.00,20.000000,,2013-10-05 15:22:00,
2013-10-05 09:33:00,21.0,19.0,-100.00,South,191,1.0,2.0,91,0.00,,,0.00,20.000000,,2013-10-05 15:33:00,
2013-10-05 10:13:00,22.0,19.0,-100.00,West,281,1.0,3.0,89,0.00,,,0.00,67.000000,,2013-10-05 16:13:00,
2013-10-05 10:23:00,22.0,19.0,-100.00,West,281,1.0,3.0,89,0.00,,,0.00,67.000000,,2013-10-05 16:23:00,
2013-10-05 10:33:00,22.0,19.0,-100.00,West,281,1.0,3.0,89,0.00,,,0.00,67.000000,,2013-10-05 16:33:00,
2013-10-05 11:12:00,24.0,21.0,-100.00,NNW,339,2.0,4.0,87,0.00,,,0.00,134.000000,,2013-10-05 17:12:00,
2013-10-05 11:22:00,24.0,21.0,-100.00,NNW,339,2.0,4.0,87,0.00,,,0.00,134.000000,,2013-10-05 17:22:00,
2013-10-05 11:33:00,24.0,21.0,-100.00,NNW,339,2.0,4.0,87,0.00,,,0.00,134.000000,,2013-10-05 17:33:00,
2013-10-05 12:12:00,28.0,23.0,-100.00,North,350,2.0,4.0,80,0.00,,,0.00,219.000000,,2013-10-05 18:12:00,
2013-10-05 12:22:00,28.0,23.0,-100.00,North,350,2.0,4.0,80,0.00,,,0.00,219.000000,,2013-10-05 18:22:00,
2013-10-05 12:32:00,28.0,23.0,-100.00,North,350,2.0,4.0,80,0.00,,,0.00,219.000000,,2013-10-05 18:32:00,
2013-10-05 13:11:00,33.0,23.0,-100.00,NNW,327,2.0,7.0,67,0.00,,,0.00,179.000000,,2013-10-05 19:11:00,
2013-10-05 13:22:00,33.0,23.0,-100.00,NNW,327,2.0,7.0,67,0.00,,,0.00,179.000000,,2013-10-05 19:22:00,
2013-10-05 13:32:00,33.0,23.0,-100.00,NNW,327,2.0,7.0,67,0.00,,,0.00,179.000000,,2013-10-05 19:32:00,
2013-10-05 14:11:00,40.0,26.0,-100.00,SSW,210,4.0,9.0,56,0.00,,,0.00,243.000000,,2013-10-05 20:11:00,
2013-10-05 14:22:00,40.0,26.0,-100.00,SSW,210,4.0,9.0,56,0.00,,,0.00,243.000000,,2013-10-05 20:22:00,
2013-10-05 14:32:00,40.0,26.0,-100.00,SSW,210,4.0,9.0,56,0.00,,,0.00,243.000000,,2013-10-05 20:32:00,
2013-10-05 15:12:00,45.0,27.0,-100.00,SSW,202,4.0,10.0,50,0.00,,,0.00,696.000000,,2013-10-05 21:12:00,
2013-10-05 15:21:00,45.0,27.0,-100.00,SSW,202,4.0,10.0,50,0.00,,,0.00,696.000000,,2013-10-05 21:21:00,
2013-10-05 15:33:00,45.0,27.0,-100.00,SSW,202,4.0,10.0,50,0.00,,,0.00,696.000000,,2013-10-05 21:33:00,
2013-10-05 16:12:00,44.0,28.0,-100.00,SSW,210,4.0,11.0,52,0.00,,,0.00,531.000000,,2013-10-05 22:12:00,
2013-10-05 16:24:00,44.0,28.0,-100.00,SSW,210,4.0,11.0,52,0.00,,,0.00,531.000000,,2013-10-05 22:24:00,
2013-10-05 16:33:00,44.0,28.0,-100.00,SSW,210,4.0,11.0,52,0.00,,,0.00,531.000000,,2013-10-05 22:33:00,
2013-10-05 17:13:00,45.0,27.0,-100.00,SSW,209,5.0,12.0,50,0.00,,,0.00,213.000000,,2013-10-05 23:13:00,
2013-10-05 17:22:00,45.0,27.0,-100.00,SSW,209,5.0,12.0,50,0.00,,,0.00,213.000000,,2013-10-05 23:22:00,
2013-10-05 17:33:00,45.0,27.0,-100.00,SSW,209,5.0,12.0,50,0.00,,,0.00,213.000000,,2013-10-05 23:33:00,
2013-10-05 18:12:00,43.0,27.0,-100.00,SSW,211,5.0,13.0,52,0.00,,,0.00,46.000000,,2013-10-06 00:12:00,
2013-10-05 18:23:00,43.0,27.0,-100.00,SSW,211,5.0,13.0,52,0.00,,,0.00,46.000000,,2013-10-06 00:23:00,
2013-10-05 18:32:00,43.0,27.0,-100.00,SSW,211,5.0,13.0,52,0.00,,,0.00,46.000000,,2013-10-06 00:32:00,
2013-10-05 19:11:00,41.0,27.0,-100.00,SW,218,3.0,10.0,57,0.00,,,0.00,21.000000,,2013-10-06 01:11:00,
2013-10-05 19:22:00,41.0,27.0,-100.00,SW,218,3.0,10.0,57,0.00,,,0.00,21.000000,,2013-10-06 01:22:00,
2013-10-05 19:32:00,41.0,27.0,-100.00,SW,218,3.0,10.0,57,0.00,,,0.00,21.000000,,2013-10-06 01:32:00,
2013-10-05 20:11:00,35.0,28.0,-100.00,SSW,196,1.0,7.0,74,0.00,,,0.00,2.000000,,2013-10-06 02:11:00,
2013-10-05 20:22:00,35.0,28.0,-100.00,SSW,196,1.0,7.0,74,0.00,,,0.00,2.000000,,2013-10-06 02:22:00,
2013-10-05 20:32:00,35.0,28.0,-100.00,SSW,196,1.0,7.0,74,0.00,,,0.00,2.000000,,2013-10-06 02:32:00,
2013-10-05 21:12:00,32.0,26.0,-100.00,West,261,1.0,4.0,79,0.00,,,0.00,0.000000,,2013-10-06 03:12:00,
2013-10-05 21:22:00,32.0,26.0,-100.00,West,261,1.0,4.0,79,0.00,,,0.00,0.000000,,2013-10-06 03:22:00,
2013-10-05 21:34:00,32.0,26.0,-100.00,West,261,1.0,4.0,79,0.00,,,0.00,0.000000,,2013-10-06 03:34:00,
2013-10-05 22:13:00,29.0,25.0,-100.00,SSE,167,0.0,3.0,84,0.00,,,0.00,0.000000,,2013-10-06 04:13:00,
2013-10-05 22:24:00,29.0,25.0,-100.00,SSE,167,0.0,3.0,84,0.00,,,0.00,0.000000,,2013-10-06 04:24:00,
2013-10-05 22:34:00,29.0,25.0,-100.00,SSE,167,0.0,3.0,84,0.00,,,0.00,0.000000,,2013-10-06 04:34:00,
2013-10-05 23:13:00,28.0,25.0,-100.00,East,80,1.0,3.0,90,0.00,,,0.00,0.000000,,2013-10-06 05:13:00,
2013-10-05 23:22:00,28.0,25.0,-100.00,East,80,1.0,3.0,90,0.00,,,0.00,0.000000,,2013-10-06 05:22:00,
2013-10-05 23:33:00,28.0,25.0,-100.00,East,80,1.0,3.0,90,0.00,,,0.00,0.000000,,2013-10-06 05:33:00,